createdAt,value
2023-12-19T00:00:35.827Z,70.30
2023-12-19T00:02:37.659Z,70.30
2023-12-19T00:04:39.456Z,70.30
2023-12-19T00:06:41.324Z,70.30
2023-12-19T00:08:43.005Z,70.40
2023-12-19T00:10:44.813Z,71.10
2023-12-19T00:12:46.729Z,70.30
2023-12-19T00:14:48.676Z,70.20
2023-12-19T00:16:50.412Z,70.30
2023-12-19T00:18:52.273Z,70.40
2023-12-19T00:20:55.079Z,70.40
2023-12-19T00:22:56.781Z,70.40
2023-12-19T00:24:58.524Z,70.40
2023-12-19T00:27:00.277Z,70.40
2023-12-19T00:29:01.992Z,70.30
2023-12-19T00:31:04.070Z,70.30
2023-12-19T00:33:06.565Z,70.30
2023-12-19T00:35:09.838Z,70.30
2023-12-19T00:37:11.760Z,70.20
2023-12-19T00:39:13.513Z,70.30
2023-12-19T00:41:16.400Z,70.30
2023-12-19T00:43:18.103Z,70.40
2023-12-19T00:45:19.894Z,70.40
2023-12-19T00:47:21.672Z,70.20
2023-12-19T00:49:23.427Z,70.40
2023-12-19T00:51:25.175Z,70.50
2023-12-19T00:53:26.986Z,70.50
2023-12-19T00:55:28.786Z,70.40
2023-12-19T00:57:30.562Z,70.10
2023-12-19T00:59:32.330Z,70.20
2023-12-19T01:01:34.105Z,70.40
2023-12-19T01:03:36.719Z,70.50
2023-12-19T01:05:38.688Z,70.60
2023-12-19T01:07:40.441Z,70.80
2023-12-19T01:09:42.312Z,70.60
2023-12-19T01:11:44.092Z,70.50
2023-12-19T01:13:46.241Z,70.30
2023-12-19T01:15:48.688Z,70.30
2023-12-19T01:17:50.948Z,70.30
2023-12-19T01:19:54.154Z,70.30
2023-12-19T01:21:56.514Z,70.30
2023-12-19T01:23:58.245Z,70.20
2023-12-19T01:26:01.549Z,70.00
2023-12-19T01:28:10.999Z,69.90
2023-12-19T01:30:14.309Z,70.10
2023-12-19T01:32:16.099Z,70.20
2023-12-19T01:34:18.072Z,70.10
2023-12-19T01:36:19.865Z,70.10
2023-12-19T01:38:21.863Z,70.10
2023-12-19T01:40:23.582Z,70.10
2023-12-19T01:42:25.414Z,70.10
2023-12-19T01:44:27.173Z,70.10
2023-12-19T01:46:29.249Z,70.00
2023-12-19T01:48:31.167Z,69.90
2023-12-19T01:50:32.961Z,70.10
2023-12-19T01:52:36.269Z,70.10
2023-12-19T01:54:38.809Z,70.00
2023-12-19T01:56:40.840Z,69.80
2023-12-19T01:58:42.965Z,70.00
2023-12-19T02:00:44.803Z,70.00
2023-12-19T02:02:47.086Z,69.80
2023-12-19T02:04:52.255Z,69.80
2023-12-19T02:06:54.302Z,69.80
2023-12-19T02:08:56.057Z,69.80
2023-12-19T02:10:57.743Z,69.40
2023-12-19T02:13:00.247Z,69.50
2023-12-19T02:15:02.658Z,69.50
2023-12-19T02:17:04.425Z,69.50
2023-12-19T02:19:06.572Z,69.40
2023-12-19T02:21:08.577Z,69.20
2023-12-19T02:23:11.367Z,69.20
2023-12-19T02:25:13.547Z,69.20
2023-12-19T02:27:16.113Z,69.20
2023-12-19T02:29:17.845Z,69.20
2023-12-19T02:31:20.841Z,69.00
2023-12-19T02:33:22.714Z,69.20
2023-12-19T02:35:24.847Z,69.20
2023-12-19T02:37:26.650Z,69.20
2023-12-19T02:39:28.404Z,69.20
2023-12-19T02:41:30.304Z,69.40
2023-12-19T02:43:32.006Z,69.40
2023-12-19T02:45:35.396Z,69.30
2023-12-19T02:47:37.506Z,69.30
2023-12-19T02:49:39.416Z,69.10
2023-12-19T02:51:41.265Z,69.20
2023-12-19T02:53:42.943Z,69.10
2023-12-19T02:55:44.627Z,69.30
2023-12-19T02:57:46.433Z,69.20
2023-12-19T02:59:48.103Z,69.10
2023-12-19T03:01:49.974Z,69.20
2023-12-19T03:03:51.956Z,69.10
2023-12-19T03:05:53.774Z,69.00
2023-12-19T03:07:56.390Z,68.90
2023-12-19T03:09:58.169Z,69.00
2023-12-19T03:12:01.094Z,69.10
2023-12-19T03:14:02.817Z,69.00
2023-12-19T03:16:04.943Z,69.10
2023-12-19T03:18:06.844Z,69.10
2023-12-19T03:20:08.894Z,69.00
2023-12-19T03:22:10.742Z,68.90
2023-12-19T03:24:12.520Z,69.00
2023-12-19T03:26:14.288Z,69.10
2023-12-19T03:28:16.019Z,69.10
2023-12-19T03:30:17.728Z,69.20
2023-12-19T03:32:20.276Z,69.10
2023-12-19T03:34:22.121Z,69.00
2023-12-19T03:36:23.949Z,68.90
2023-12-19T03:38:25.657Z,69.10
2023-12-19T03:40:27.458Z,69.20
2023-12-19T03:42:29.231Z,69.20
2023-12-19T03:44:30.984Z,69.00
2023-12-19T03:46:32.777Z,69.20
2023-12-19T03:48:35.891Z,69.40
2023-12-19T03:50:37.712Z,69.40
2023-12-19T03:52:39.513Z,69.30
2023-12-19T03:54:41.306Z,69.10
2023-12-19T03:56:43.161Z,69.20
2023-12-19T03:58:44.903Z,68.90
2023-12-19T04:00:46.869Z,68.90
2023-12-19T04:02:48.841Z,68.80
2023-12-19T04:04:50.725Z,68.80
2023-12-19T04:06:52.686Z,68.80
2023-12-19T04:08:54.548Z,68.70
2023-12-19T04:10:56.284Z,68.70
2023-12-19T04:12:58.108Z,68.50
2023-12-19T04:14:59.838Z,68.50
2023-12-19T04:17:01.589Z,68.50
2023-12-19T04:19:03.338Z,68.50
2023-12-19T04:21:07.103Z,68.70
2023-12-19T04:23:08.887Z,68.80
2023-12-19T04:25:10.719Z,68.70
2023-12-19T04:27:12.499Z,68.70
2023-12-19T04:29:14.211Z,68.70
2023-12-19T04:31:16.195Z,68.80
2023-12-19T04:33:18.100Z,68.60
2023-12-19T04:35:19.831Z,68.50
2023-12-19T04:37:21.576Z,68.60
2023-12-19T04:39:23.271Z,68.70
2023-12-19T04:41:25.028Z,68.60
2023-12-19T04:43:26.741Z,68.60
2023-12-19T04:45:28.487Z,68.40
2023-12-19T04:47:30.438Z,68.60
2023-12-19T04:49:32.250Z,68.60
2023-12-19T04:51:34.104Z,68.60
2023-12-19T04:53:35.894Z,68.50
2023-12-19T04:55:37.644Z,68.60
2023-12-19T04:57:39.364Z,68.70
2023-12-19T04:59:41.123Z,68.80
2023-12-19T05:01:43.199Z,68.90
2023-12-19T05:03:45.148Z,68.80
2023-12-19T05:05:46.959Z,68.80
2023-12-19T05:07:48.723Z,69.00
2023-12-19T05:09:50.449Z,69.00
2023-12-19T05:11:52.165Z,69.10
2023-12-19T05:13:53.851Z,68.80
2023-12-19T05:15:55.612Z,68.80
2023-12-19T05:17:57.417Z,68.70
2023-12-19T05:20:00.188Z,68.80
2023-12-19T05:22:02.092Z,68.60
2023-12-19T05:24:03.990Z,68.70
2023-12-19T05:26:06.381Z,68.50
2023-12-19T05:28:08.084Z,68.30
2023-12-19T05:30:10.498Z,68.40
2023-12-19T05:32:12.316Z,68.40
2023-12-19T05:34:14.141Z,68.40
2023-12-19T05:36:16.096Z,68.40
2023-12-19T05:38:20.902Z,68.40
2023-12-19T05:40:22.737Z,67.80
2023-12-19T05:42:25.201Z,67.90
2023-12-19T05:44:26.914Z,67.20
2023-12-19T05:46:28.745Z,67.70
2023-12-19T05:48:30.651Z,67.50
2023-12-19T05:50:32.602Z,67.70
2023-12-19T05:52:34.610Z,67.20
2023-12-19T05:54:36.539Z,67.30
2023-12-19T05:56:38.378Z,67.70
2023-12-19T05:58:40.321Z,67.90
2023-12-19T06:00:42.219Z,68.00
2023-12-19T06:02:44.199Z,67.80
2023-12-19T06:04:46.131Z,67.80
2023-12-19T06:06:47.927Z,67.70
2023-12-19T06:08:49.810Z,68.80
2023-12-19T06:10:54.613Z,68.20
2023-12-19T06:12:57.389Z,67.80
2023-12-19T06:14:59.155Z,67.90
2023-12-19T06:17:00.881Z,67.90
2023-12-19T06:19:02.868Z,67.90
2023-12-19T06:21:04.780Z,67.90
2023-12-19T06:23:06.495Z,67.50
2023-12-19T06:25:08.356Z,67.80
2023-12-19T06:27:10.957Z,67.90
2023-12-19T06:29:12.706Z,68.10
2023-12-19T06:31:14.982Z,68.10
2023-12-19T06:33:16.942Z,68.00
2023-12-19T06:35:18.705Z,67.90
2023-12-19T06:37:20.456Z,68.00
2023-12-19T06:39:22.149Z,68.10
2023-12-19T06:41:24.110Z,67.90
2023-12-19T06:43:25.797Z,68.10
2023-12-19T06:45:27.525Z,68.30
2023-12-19T06:47:29.906Z,68.30
2023-12-19T06:49:31.686Z,68.20
2023-12-19T06:51:34.145Z,68.10
2023-12-19T06:53:36.124Z,68.20
2023-12-19T06:55:37.886Z,68.20
2023-12-19T06:57:39.750Z,68.10
2023-12-19T06:59:41.922Z,68.30
2023-12-19T07:01:44.214Z,68.20
2023-12-19T07:03:46.112Z,69.00
2023-12-19T07:05:47.959Z,68.10
2023-12-19T07:07:52.492Z,68.10
2023-12-19T07:09:54.495Z,68.00
2023-12-19T07:11:56.433Z,67.90
2023-12-19T07:13:58.252Z,67.90
2023-12-19T07:16:00.003Z,67.90
2023-12-19T07:18:01.979Z,67.80
2023-12-19T07:20:05.051Z,68.00
2023-12-19T07:22:07.935Z,67.90
2023-12-19T07:24:10.139Z,68.00
2023-12-19T07:26:21.275Z,68.10
2023-12-19T07:28:23.228Z,68.10
2023-12-19T07:30:25.180Z,68.00
2023-12-19T07:32:27.104Z,67.90
2023-12-19T07:34:29.048Z,68.10
2023-12-19T07:36:31.366Z,68.20
2023-12-19T07:38:34.328Z,68.30
2023-12-19T07:40:36.423Z,68.10
2023-12-19T07:42:38.137Z,68.10
2023-12-19T07:44:39.877Z,68.10
2023-12-19T07:46:42.454Z,68.10
2023-12-19T07:48:44.444Z,68.10
2023-12-19T07:50:46.204Z,68.00
2023-12-19T07:52:47.888Z,68.00
2023-12-19T07:54:49.620Z,68.80
2023-12-19T07:56:51.444Z,68.10
2023-12-19T07:58:53.720Z,68.20
2023-12-19T08:00:55.987Z,68.40
2023-12-19T08:02:58.745Z,68.50
2023-12-19T08:05:00.736Z,68.50
2023-12-19T08:07:03.760Z,68.60
2023-12-19T08:09:05.629Z,68.60
2023-12-19T08:11:08.028Z,68.50
2023-12-19T08:13:10.204Z,68.70
2023-12-19T08:15:12.767Z,68.70
2023-12-19T08:17:14.698Z,69.00
2023-12-19T08:19:17.848Z,69.00
2023-12-19T08:21:19.936Z,69.00
2023-12-19T08:23:21.655Z,69.00
2023-12-19T08:25:23.402Z,69.10
2023-12-19T08:27:29.222Z,69.10
2023-12-19T08:29:30.991Z,69.20
2023-12-19T08:31:32.818Z,69.20
2023-12-19T08:33:34.768Z,69.30
2023-12-19T08:35:36.842Z,69.40
2023-12-19T08:37:38.938Z,69.40
2023-12-19T08:39:40.738Z,69.40
2023-12-19T08:41:45.016Z,69.40
2023-12-19T08:43:46.795Z,69.50
2023-12-19T08:45:49.376Z,69.50
2023-12-19T08:47:51.786Z,69.50
2023-12-19T08:49:59.600Z,69.70
2023-12-19T08:52:01.387Z,69.60
2023-12-19T08:54:03.235Z,69.70
2023-12-19T08:56:05.171Z,69.70
2023-12-19T08:58:08.499Z,69.70
2023-12-19T09:00:14.225Z,69.50
2023-12-19T09:02:16.100Z,69.70
2023-12-19T09:04:18.552Z,69.70
2023-12-19T09:06:20.684Z,69.60
2023-12-19T09:08:22.437Z,69.50
2023-12-19T09:10:24.262Z,69.50
2023-12-19T09:12:26.042Z,69.40
2023-12-19T09:14:27.993Z,69.20
2023-12-19T09:16:30.012Z,69.20
2023-12-19T09:18:32.028Z,69.40
2023-12-19T09:20:33.958Z,69.40
2023-12-19T09:22:36.724Z,69.30
2023-12-19T09:24:38.540Z,69.30
2023-12-19T09:26:40.448Z,69.20
2023-12-19T09:28:42.293Z,69.40
2023-12-19T09:30:44.207Z,69.40
2023-12-19T09:32:46.447Z,69.40
2023-12-19T09:34:48.536Z,69.30
2023-12-19T09:36:56.451Z,69.40
2023-12-19T09:38:59.330Z,69.40
2023-12-19T09:41:01.188Z,69.50
2023-12-19T09:43:03.874Z,69.50
2023-12-19T09:45:08.017Z,69.60
2023-12-19T09:47:10.969Z,69.80
2023-12-19T09:49:13.566Z,69.90
2023-12-19T09:51:27.496Z,69.80
2023-12-19T09:53:37.698Z,69.60
2023-12-19T09:55:45.453Z,69.70
2023-12-19T09:57:47.376Z,69.70
2023-12-19T09:59:54.843Z,69.50
2023-12-19T10:01:59.194Z,69.50
2023-12-19T10:04:02.131Z,69.30
2023-12-19T10:06:04.485Z,69.30
2023-12-19T10:08:08.214Z,69.00
2023-12-19T10:10:12.545Z,69.10
2023-12-19T10:12:14.696Z,69.00
2023-12-19T10:14:16.549Z,68.90
2023-12-19T10:16:31.877Z,68.90
2023-12-19T10:18:45.316Z,69.10
2023-12-19T10:20:48.942Z,69.10
2023-12-19T10:22:53.611Z,69.10
2023-12-19T10:25:01.098Z,69.10
2023-12-19T10:27:04.032Z,69.20
2023-12-19T10:29:06.656Z,69.20
2023-12-19T10:31:16.629Z,69.10
2023-12-19T10:33:18.914Z,69.30
2023-12-19T10:35:20.819Z,69.70
2023-12-19T10:37:23.717Z,69.70
2023-12-19T10:39:26.697Z,69.60
2023-12-19T10:41:32.209Z,69.50
2023-12-19T10:43:39.306Z,69.50
2023-12-19T10:45:41.453Z,69.50
2023-12-19T10:47:43.638Z,69.40
2023-12-19T10:51:49.979Z,69.30
2023-12-19T10:53:59.983Z,69.40
2023-12-19T10:56:04.559Z,69.30
2023-12-19T10:58:06.632Z,69.20
2023-12-19T11:00:11.920Z,69.50
2023-12-19T11:02:30.260Z,69.40
2023-12-19T11:04:33.967Z,69.40
2023-12-19T11:06:36.922Z,69.30
2023-12-19T11:08:40.690Z,69.00
2023-12-19T11:10:43.287Z,68.90
2023-12-19T11:12:45.198Z,69.00
2023-12-19T11:14:47.017Z,69.10
2023-12-19T11:16:57.281Z,69.20
2023-12-19T11:19:09.856Z,69.10
2023-12-19T11:21:35.300Z,69.20
2023-12-19T11:23:40.232Z,69.50
2023-12-19T11:25:44.997Z,69.40
2023-12-19T11:27:56.570Z,69.10
2023-12-19T11:29:58.332Z,69.00
2023-12-19T11:32:00.139Z,68.90
2023-12-19T11:34:21.626Z,69.10
2023-12-19T11:36:23.510Z,69.20
2023-12-19T11:38:28.234Z,69.20
2023-12-19T11:40:57.867Z,69.30
2023-12-19T11:42:59.658Z,69.20
2023-12-19T11:45:01.460Z,69.10
2023-12-19T11:47:19.916Z,69.10
2023-12-19T11:49:36.951Z,69.10
2023-12-19T11:51:46.914Z,69.10
2023-12-19T11:53:49.120Z,68.90
2023-12-19T11:55:50.906Z,68.90
2023-12-19T11:57:57.356Z,69.00
2023-12-19T12:00:07.320Z,69.10
2023-12-19T12:02:32.961Z,69.30
2023-12-19T12:04:35.736Z,69.50
2023-12-19T12:06:42.380Z,69.70
2023-12-19T12:08:52.422Z,69.90
2023-12-19T12:11:01.066Z,69.90
2023-12-19T12:13:03.638Z,69.90
2023-12-19T12:15:25.003Z,69.90
2023-12-19T12:17:31.235Z,69.90
2023-12-19T12:19:33.437Z,70.00
2023-12-19T12:21:35.353Z,69.90
2023-12-19T12:23:37.201Z,69.70
2023-12-19T12:25:39.480Z,69.70
2023-12-19T12:27:41.774Z,69.50
2023-12-19T12:29:43.545Z,69.70
2023-12-19T12:31:46.217Z,69.70
2023-12-19T12:33:48.038Z,69.70
2023-12-19T12:35:49.965Z,69.50
2023-12-19T12:38:01.648Z,69.50
2023-12-19T12:40:05.967Z,69.40
2023-12-19T12:42:08.128Z,69.60
2023-12-19T12:44:13.271Z,69.80
2023-12-19T12:46:15.549Z,69.80
2023-12-19T12:48:17.424Z,69.70
2023-12-19T12:50:20.736Z,69.80
2023-12-19T12:52:22.587Z,69.70
2023-12-19T12:54:24.485Z,70.70
2023-12-19T12:56:38.457Z,69.90
2023-12-19T12:58:40.292Z,70.10
2023-12-19T13:00:47.203Z,70.20
2023-12-19T13:02:49.156Z,70.30
2023-12-19T13:04:51.647Z,70.10
2023-12-19T13:06:53.491Z,70.00
2023-12-19T13:08:55.232Z,70.00
2023-12-19T13:11:02.310Z,70.00
2023-12-19T13:13:05.120Z,69.80
2023-12-19T13:15:08.981Z,69.70
2023-12-19T13:17:10.751Z,69.90
2023-12-19T13:19:14.947Z,70.00
2023-12-19T13:21:17.348Z,70.00
2023-12-19T13:23:19.258Z,69.90
2023-12-19T13:25:21.089Z,69.80
2023-12-19T13:27:22.912Z,69.90
2023-12-19T13:29:24.864Z,70.00
2023-12-19T13:31:28.659Z,70.10
2023-12-19T13:33:31.161Z,70.30
2023-12-19T13:35:35.933Z,70.40
2023-12-19T13:37:37.727Z,70.30
2023-12-19T13:39:40.327Z,70.10
2023-12-19T13:41:42.666Z,70.00
2023-12-19T13:43:45.043Z,69.90
2023-12-19T13:45:47.572Z,69.90
2023-12-19T13:47:49.591Z,70.10
2023-12-19T13:49:53.184Z,70.20
2023-12-19T13:51:55.225Z,70.40
2023-12-19T13:53:57.063Z,70.50
2023-12-19T13:55:58.899Z,70.50
2023-12-19T13:58:00.965Z,70.40
2023-12-19T14:00:05.510Z,70.30
2023-12-19T14:02:19.148Z,70.10
2023-12-19T14:04:22.043Z,69.90
2023-12-19T14:06:24.068Z,69.90
2023-12-19T14:08:25.985Z,69.80
2023-12-19T14:10:27.986Z,69.70
2023-12-19T14:12:29.913Z,69.50
2023-12-19T14:14:31.844Z,69.40
2023-12-19T14:16:33.680Z,69.30
2023-12-19T14:18:35.561Z,69.60
2023-12-19T14:20:37.431Z,69.70
2023-12-19T14:22:39.977Z,69.60
2023-12-19T14:24:42.492Z,69.50
2023-12-19T14:26:45.532Z,69.60
2023-12-19T14:28:47.499Z,69.90
2023-12-19T14:30:49.483Z,70.00
2023-12-19T14:32:51.430Z,70.30
2023-12-19T14:34:53.337Z,70.30
2023-12-19T14:36:55.268Z,70.20
2023-12-19T14:39:00.492Z,70.20
2023-12-19T14:41:02.793Z,70.20
2023-12-19T14:43:05.677Z,70.20
2023-12-19T14:45:07.832Z,70.30
2023-12-19T14:47:09.589Z,70.60
2023-12-19T14:49:13.069Z,70.70
2023-12-19T14:51:15.620Z,70.70
2023-12-19T14:53:17.636Z,70.80
2023-12-19T14:55:19.440Z,70.80
2023-12-19T14:57:26.063Z,70.80
2023-12-19T14:59:27.991Z,70.70
2023-12-19T15:01:31.198Z,70.50
2023-12-19T15:03:33.150Z,70.40
2023-12-19T15:05:35.072Z,70.70
2023-12-19T15:07:37.043Z,70.30
2023-12-19T15:09:39.252Z,70.20
2023-12-19T15:11:41.562Z,70.20
2023-12-19T15:13:44.190Z,70.10
2023-12-19T15:15:46.036Z,70.10
2023-12-19T15:17:48.293Z,70.00
2023-12-19T15:19:50.451Z,70.00
2023-12-19T15:21:52.929Z,70.10
2023-12-19T15:23:54.807Z,70.20
2023-12-19T15:25:56.650Z,70.40
2023-12-19T15:28:02.776Z,70.50
2023-12-19T15:30:12.568Z,70.50
2023-12-19T15:32:14.880Z,70.40
2023-12-19T15:34:17.305Z,70.60
2023-12-19T15:36:19.380Z,70.50
2023-12-19T15:38:21.280Z,70.40
2023-12-19T15:40:23.275Z,70.60
2023-12-19T15:42:25.195Z,70.90
2023-12-19T15:44:27.095Z,71.10
2023-12-19T15:46:31.553Z,71.00
2023-12-19T15:48:33.488Z,70.90
2023-12-19T15:50:35.435Z,70.90
2023-12-19T15:52:39.287Z,70.80
2023-12-19T15:54:44.474Z,71.20
2023-12-19T15:56:46.443Z,71.30
2023-12-19T15:58:48.269Z,71.00
2023-12-19T16:00:51.065Z,71.00
2023-12-19T16:02:53.472Z,70.90
2023-12-19T16:04:55.968Z,70.90
2023-12-19T16:06:57.880Z,70.90
2023-12-19T16:08:59.897Z,70.80
2023-12-19T16:11:01.726Z,70.50
2023-12-19T16:13:03.661Z,70.40
2023-12-19T16:15:06.120Z,71.30
2023-12-19T16:17:08.697Z,70.50
2023-12-19T16:19:11.077Z,70.50
2023-12-19T16:21:14.117Z,70.50
2023-12-19T16:23:15.869Z,70.50
2023-12-19T16:25:17.659Z,70.50
2023-12-19T16:27:22.674Z,70.50
2023-12-19T16:29:27.430Z,70.40
2023-12-19T16:31:29.512Z,70.40
2023-12-19T16:33:31.726Z,70.50
2023-12-19T16:35:33.700Z,70.50
2023-12-19T16:37:35.550Z,70.60
2023-12-19T16:39:37.431Z,70.90
2023-12-19T16:41:39.325Z,70.80
2023-12-19T16:43:42.644Z,70.80
2023-12-19T16:45:44.554Z,70.80
2023-12-19T16:47:49.403Z,70.90
2023-12-19T16:49:55.016Z,71.10
2023-12-19T16:51:57.053Z,71.10
2023-12-19T16:53:58.915Z,71.80
2023-12-19T16:56:00.721Z,71.00
2023-12-19T16:58:02.569Z,71.40
2023-12-19T17:00:04.646Z,71.50
2023-12-19T17:02:06.593Z,71.40
2023-12-19T17:04:08.628Z,71.30
2023-12-19T17:06:10.679Z,71.20
2023-12-19T17:08:13.682Z,71.20
2023-12-19T17:10:15.555Z,71.10
2023-12-19T17:12:17.799Z,71.00
2023-12-19T17:14:19.814Z,71.00
2023-12-19T17:16:21.713Z,70.90
2023-12-19T17:18:23.773Z,70.90
2023-12-19T17:20:25.843Z,70.80
2023-12-19T17:22:27.981Z,70.90
2023-12-19T17:24:36.055Z,71.00
2023-12-19T17:26:42.841Z,71.10
2023-12-19T17:28:44.685Z,71.20
2023-12-19T17:30:46.781Z,72.10
2023-12-19T17:32:49.073Z,71.10
2023-12-19T17:34:50.876Z,71.00
2023-12-19T17:36:52.804Z,71.00
2023-12-19T17:38:54.633Z,71.10
2023-12-19T17:40:56.476Z,71.10
2023-12-19T17:42:58.352Z,71.20
2023-12-19T17:45:00.410Z,71.00
2023-12-19T17:47:10.123Z,71.00
2023-12-19T17:49:24.038Z,71.10
2023-12-19T17:51:25.966Z,70.90
2023-12-19T17:53:27.791Z,70.90
2023-12-19T17:55:29.677Z,70.90
2023-12-19T17:57:32.164Z,70.90
2023-12-19T17:59:34.067Z,71.00
2023-12-19T18:01:45.575Z,71.00
2023-12-19T18:03:48.010Z,70.90
2023-12-19T18:05:53.463Z,71.00
2023-12-19T18:07:55.516Z,71.00
2023-12-19T18:09:57.631Z,70.90
2023-12-19T18:11:59.647Z,70.90
2023-12-19T18:14:01.570Z,71.10
2023-12-19T18:16:06.359Z,71.10
2023-12-19T18:18:08.616Z,70.90
2023-12-19T18:20:10.898Z,70.80
2023-12-19T18:22:12.769Z,70.70
2023-12-19T18:24:14.742Z,70.60
2023-12-19T18:26:16.656Z,70.50
2023-12-19T18:28:18.642Z,70.60
2023-12-19T18:30:20.685Z,70.50
2023-12-19T18:32:22.552Z,70.40
2023-12-19T18:34:24.639Z,70.50
2023-12-19T18:36:26.663Z,70.40
2023-12-19T18:38:31.267Z,70.70
2023-12-19T18:40:33.488Z,70.70
2023-12-19T18:42:35.906Z,70.70
2023-12-19T18:44:38.387Z,70.80
2023-12-19T18:46:41.275Z,70.80
2023-12-19T18:48:43.293Z,70.80
2023-12-19T18:50:49.487Z,70.90
2023-12-19T18:52:54.421Z,70.80
2023-12-19T18:54:57.020Z,70.90
2023-12-19T18:56:58.948Z,70.90
2023-12-19T18:59:03.158Z,70.90
2023-12-19T19:01:20.257Z,70.90
2023-12-19T19:03:23.304Z,70.90
2023-12-19T19:05:28.041Z,70.90
2023-12-19T19:07:39.603Z,70.90
2023-12-19T19:09:42.697Z,71.00
2023-12-19T19:11:46.193Z,71.00
2023-12-19T19:13:54.211Z,71.10
2023-12-19T19:15:59.381Z,71.20
2023-12-19T19:18:02.937Z,71.20
2023-12-19T19:20:06.371Z,71.50
2023-12-19T19:22:08.906Z,71.70
2023-12-19T19:24:19.884Z,71.70
2023-12-19T19:26:27.939Z,72.00
2023-12-19T19:28:31.505Z,72.00
2023-12-19T19:30:33.531Z,72.00
2023-12-19T19:32:35.940Z,72.00
2023-12-19T19:34:40.661Z,72.20
2023-12-19T19:36:42.743Z,72.10
2023-12-19T19:38:44.693Z,72.10
2023-12-19T19:40:47.951Z,72.10
2023-12-19T19:42:49.760Z,72.00
2023-12-19T19:44:51.655Z,71.90
2023-12-19T19:46:53.499Z,71.70
2023-12-19T19:48:55.645Z,71.70
2023-12-19T19:50:58.335Z,71.60
2023-12-19T19:53:00.466Z,71.60
2023-12-19T19:55:03.056Z,71.60
2023-12-19T19:57:05.045Z,71.70
2023-12-19T19:59:06.930Z,71.80
2023-12-19T20:01:09.773Z,71.70
2023-12-19T20:03:11.917Z,71.80
2023-12-19T20:05:13.929Z,71.70
2023-12-19T20:07:16.032Z,71.60
2023-12-19T20:09:18.645Z,71.60
2023-12-19T20:11:20.742Z,71.40
2023-12-19T20:13:22.820Z,71.50
2023-12-19T20:15:25.032Z,71.40
2023-12-19T20:17:27.546Z,71.40
2023-12-19T20:19:29.456Z,71.40
2023-12-19T20:21:31.353Z,71.50
2023-12-19T20:23:33.229Z,71.50
2023-12-19T20:25:35.059Z,71.30
2023-12-19T20:27:37.112Z,71.30
2023-12-19T20:29:39.771Z,71.10
2023-12-19T20:31:41.760Z,71.10
2023-12-19T20:33:46.908Z,71.10
2023-12-19T20:35:50.024Z,72.00
2023-12-19T20:37:52.859Z,71.40
2023-12-19T20:39:58.276Z,71.40
2023-12-19T20:42:03.289Z,71.30
2023-12-19T20:44:11.547Z,71.40
2023-12-19T20:46:19.938Z,71.40
2023-12-19T20:48:25.734Z,71.40
2023-12-19T20:50:31.215Z,71.40
2023-12-19T20:52:50.203Z,71.30
2023-12-19T20:55:04.283Z,71.50
2023-12-19T20:57:13.280Z,71.50
2023-12-19T20:59:18.345Z,71.60
2023-12-19T21:01:21.872Z,71.50
2023-12-19T21:03:25.408Z,71.80
2023-12-19T21:05:29.876Z,71.70
2023-12-19T21:07:33.071Z,71.70
2023-12-19T21:09:36.504Z,71.40
2023-12-19T21:11:42.464Z,71.40
2023-12-19T21:13:46.853Z,71.40
2023-12-19T21:15:51.116Z,71.60
2023-12-19T21:17:53.427Z,71.60
2023-12-19T21:19:56.205Z,71.60
2023-12-19T21:21:59.970Z,71.60
2023-12-19T21:24:03.631Z,71.60
2023-12-19T21:26:06.982Z,71.80
2023-12-19T21:28:09.395Z,71.80
2023-12-19T21:30:11.826Z,71.50
2023-12-19T21:32:14.422Z,71.50
2023-12-19T21:34:17.809Z,71.70
2023-12-19T21:36:21.384Z,71.60
2023-12-19T21:38:24.643Z,71.70
2023-12-19T21:40:26.871Z,71.80
2023-12-19T21:42:31.363Z,71.90
2023-12-19T21:44:36.166Z,72.00
2023-12-19T21:46:38.467Z,72.10
2023-12-19T21:48:41.155Z,72.10
2023-12-19T21:50:43.823Z,72.20
2023-12-19T21:52:46.011Z,71.90
2023-12-19T21:54:48.122Z,72.00
2023-12-19T21:56:50.956Z,71.90
2023-12-19T21:58:53.266Z,71.80
2023-12-19T22:00:55.899Z,71.90
2023-12-19T22:02:58.433Z,71.80
2023-12-19T22:05:00.771Z,71.90
2023-12-19T22:07:03.288Z,72.00
2023-12-19T22:09:05.538Z,72.20
2023-12-19T22:11:08.682Z,72.40
2023-12-19T22:13:10.924Z,72.50
2023-12-19T22:15:16.356Z,72.60
2023-12-19T22:17:19.104Z,72.60
2023-12-19T22:19:21.120Z,72.50
2023-12-19T22:21:25.257Z,72.50
2023-12-19T22:23:30.437Z,72.80
2023-12-19T22:25:33.183Z,72.70
2023-12-19T22:27:35.806Z,72.90
2023-12-19T22:29:38.703Z,72.80
2023-12-19T22:31:41.764Z,73.10
2023-12-19T22:33:46.305Z,73.20
2023-12-19T22:35:48.528Z,72.80
2023-12-19T22:37:50.443Z,73.10
2023-12-19T22:39:52.688Z,73.00
2023-12-19T22:41:55.186Z,73.00
2023-12-19T22:43:57.173Z,73.10
2023-12-19T22:46:00.462Z,73.40
2023-12-19T22:48:02.618Z,73.20
2023-12-19T22:50:04.863Z,73.10
2023-12-19T22:52:06.970Z,73.10
2023-12-19T22:54:09.853Z,73.10
2023-12-19T22:56:19.769Z,73.20
2023-12-19T22:58:22.544Z,73.20
2023-12-19T23:00:24.409Z,73.00
2023-12-19T23:02:26.452Z,73.10
2023-12-19T23:04:28.387Z,73.60
2023-12-19T23:06:32.724Z,73.10
2023-12-19T23:08:34.546Z,73.10
2023-12-19T23:10:38.096Z,72.80
2023-12-19T23:12:41.644Z,72.90
2023-12-19T23:14:43.750Z,72.80
2023-12-19T23:16:45.866Z,72.80
2023-12-19T23:18:47.762Z,72.90
2023-12-19T23:20:49.774Z,73.00
2023-12-19T23:22:51.719Z,73.10
2023-12-19T23:24:56.494Z,72.80
2023-12-19T23:26:58.266Z,72.50
2023-12-19T23:28:59.989Z,72.50
2023-12-19T23:31:02.007Z,72.50
2023-12-19T23:33:03.923Z,72.60
2023-12-19T23:35:06.049Z,72.80
2023-12-19T23:37:07.995Z,73.10
2023-12-19T23:39:10.111Z,73.20
2023-12-19T23:41:15.353Z,73.30
2023-12-19T23:43:19.460Z,73.50
2023-12-19T23:45:21.612Z,73.40
2023-12-19T23:47:23.367Z,73.00
2023-12-19T23:49:25.170Z,73.10
2023-12-19T23:51:27.004Z,73.10
2023-12-19T23:53:28.670Z,72.90
2023-12-19T23:55:30.445Z,72.90
2023-12-19T23:57:32.166Z,72.90
2023-12-19T23:59:33.949Z,73.10
